sensor_id;sensor_type;location;lat;lon;timestamp;P1;durP1;ratioP1;P2;durP2;ratioP2
49223;SDS011;35050;51.316;5.994;2023-04-24T00:00:54;4.03;;;2.80;;
49223;SDS011;35050;51.316;5.994;2023-04-24T00:03:26;2.75;;;2.40;;
49223;SDS011;35050;51.316;5.994;2023-04-24T00:05:52;4.03;;;3.00;;
49223;SDS011;35050;51.316;5.994;2023-04-24T00:08:21;4.32;;;3.08;;
49223;SDS011;35050;51.316;5.994;2023-04-24T00:10:48;3.08;;;2.30;;
49223;SDS011;35050;51.316;5.994;2023-04-24T00:13:14;5.35;;;3.42;;
49223;SDS011;35050;51.316;5.994;2023-04-24T00:15:40;6.25;;;3.33;;
49223;SDS011;35050;51.316;5.994;2023-04-24T00:18:05;4.45;;;2.97;;
49223;SDS011;35050;51.316;5.994;2023-04-24T00:20:31;3.08;;;2.78;;
49223;SDS011;35050;51.316;5.994;2023-04-24T00:23:05;3.67;;;2.80;;
49223;SDS011;35050;51.316;5.994;2023-04-24T00:25:31;4.68;;;2.97;;
49223;SDS011;35050;51.316;5.994;2023-04-24T00:27:57;5.57;;;3.33;;
49223;SDS011;35050;51.316;5.994;2023-04-24T00:30:22;4.40;;;3.00;;
49223;SDS011;35050;51.316;5.994;2023-04-24T00:32:48;5.63;;;3.50;;
49223;SDS011;35050;51.316;5.994;2023-04-24T00:35:14;5.18;;;3.55;;
49223;SDS011;35050;51.316;5.994;2023-04-24T00:37:39;4.65;;;3.47;;
49223;SDS011;35050;51.316;5.994;2023-04-24T00:40:05;8.10;;;4.63;;
49223;SDS011;35050;51.316;5.994;2023-04-24T00:42:31;6.32;;;4.00;;
49223;SDS011;35050;51.316;5.994;2023-04-24T00:44:58;6.20;;;3.95;;
49223;SDS011;35050;51.316;5.994;2023-04-24T00:47:24;6.43;;;4.68;;
49223;SDS011;35050;51.316;5.994;2023-04-24T00:49:50;6.63;;;4.00;;
49223;SDS011;35050;51.316;5.994;2023-04-24T00:52:16;5.35;;;3.80;;
49223;SDS011;35050;51.316;5.994;2023-04-24T00:54:43;4.43;;;3.97;;
49223;SDS011;35050;51.316;5.994;2023-04-24T00:57:10;6.15;;;4.30;;
49223;SDS011;35050;51.316;5.994;2023-04-24T00:59:35;6.57;;;3.50;;
49223;SDS011;35050;51.316;5.994;2023-04-24T01:02:02;8.32;;;5.05;;
49223;SDS011;35050;51.316;5.994;2023-04-24T01:04:28;6.30;;;4.80;;
49223;SDS011;35050;51.316;5.994;2023-04-24T01:06:54;5.25;;;3.85;;
49223;SDS011;35050;51.316;5.994;2023-04-24T01:09:21;5.75;;;4.05;;
49223;SDS011;35050;51.316;5.994;2023-04-24T01:11:48;5.22;;;3.05;;
49223;SDS011;35050;51.316;5.994;2023-04-24T01:14:15;7.18;;;4.03;;
49223;SDS011;35050;51.316;5.994;2023-04-24T01:16:40;7.13;;;4.05;;
49223;SDS011;35050;51.316;5.994;2023-04-24T01:19:07;5.57;;;4.20;;
49223;SDS011;35050;51.316;5.994;2023-04-24T01:21:34;5.40;;;4.10;;
49223;SDS011;35050;51.316;5.994;2023-04-24T01:24:02;7.10;;;5.30;;
49223;SDS011;35050;51.316;5.994;2023-04-24T01:26:29;7.35;;;4.18;;
49223;SDS011;35050;51.316;5.994;2023-04-24T01:28:55;6.97;;;4.10;;
49223;SDS011;35050;51.316;5.994;2023-04-24T01:31:21;6.97;;;4.93;;
49223;SDS011;35050;51.316;5.994;2023-04-24T01:33:47;7.18;;;5.20;;
49223;SDS011;35050;51.316;5.994;2023-04-24T01:36:13;11.55;;;6.00;;
49223;SDS011;35050;51.316;5.994;2023-04-24T01:38:39;7.22;;;5.63;;
49223;SDS011;35050;51.316;5.994;2023-04-24T01:41:04;9.75;;;6.25;;
49223;SDS011;35050;51.316;5.994;2023-04-24T01:43:30;6.93;;;5.43;;
49223;SDS011;35050;51.316;5.994;2023-04-24T01:45:56;6.43;;;5.05;;
49223;SDS011;35050;51.316;5.994;2023-04-24T01:48:22;8.30;;;5.72;;
49223;SDS011;35050;51.316;5.994;2023-04-24T01:50:48;7.53;;;5.05;;
49223;SDS011;35050;51.316;5.994;2023-04-24T01:53:14;9.77;;;7.10;;
49223;SDS011;35050;51.316;5.994;2023-04-24T01:55:40;8.95;;;5.85;;
49223;SDS011;35050;51.316;5.994;2023-04-24T01:58:06;8.05;;;5.93;;
49223;SDS011;35050;51.316;5.994;2023-04-24T02:00:32;11.65;;;8.05;;
49223;SDS011;35050;51.316;5.994;2023-04-24T02:02:58;11.52;;;6.72;;
49223;SDS011;35050;51.316;5.994;2023-04-24T02:05:23;10.27;;;6.22;;
49223;SDS011;35050;51.316;5.994;2023-04-24T02:07:49;11.27;;;7.63;;
49223;SDS011;35050;51.316;5.994;2023-04-24T02:10:15;8.68;;;6.45;;
49223;SDS011;35050;51.316;5.994;2023-04-24T02:12:40;9.68;;;6.45;;
49223;SDS011;35050;51.316;5.994;2023-04-24T02:15:06;11.13;;;7.07;;
49223;SDS011;35050;51.316;5.994;2023-04-24T02:17:32;8.15;;;7.25;;
49223;SDS011;35050;51.316;5.994;2023-04-24T02:19:58;11.60;;;6.75;;
49223;SDS011;35050;51.316;5.994;2023-04-24T02:22:23;10.80;;;6.97;;
49223;SDS011;35050;51.316;5.994;2023-04-24T02:24:49;10.45;;;7.38;;
49223;SDS011;35050;51.316;5.994;2023-04-24T02:27:15;10.88;;;7.97;;
49223;SDS011;35050;51.316;5.994;2023-04-24T02:29:40;8.40;;;7.50;;
49223;SDS011;35050;51.316;5.994;2023-04-24T02:32:06;15.75;;;7.70;;
49223;SDS011;35050;51.316;5.994;2023-04-24T02:34:31;11.75;;;8.30;;
49223;SDS011;35050;51.316;5.994;2023-04-24T02:36:57;8.75;;;6.60;;
49223;SDS011;35050;51.316;5.994;2023-04-24T02:39:23;9.90;;;6.28;;
49223;SDS011;35050;51.316;5.994;2023-04-24T02:41:48;11.45;;;8.40;;
49223;SDS011;35050;51.316;5.994;2023-04-24T02:44:14;12.60;;;8.23;;
49223;SDS011;35050;51.316;5.994;2023-04-24T02:46:40;10.32;;;7.00;;
49223;SDS011;35050;51.316;5.994;2023-04-24T02:49:06;10.05;;;7.80;;
49223;SDS011;35050;51.316;5.994;2023-04-24T02:51:32;12.85;;;8.95;;
49223;SDS011;35050;51.316;5.994;2023-04-24T02:53:58;10.80;;;7.55;;
49223;SDS011;35050;51.316;5.994;2023-04-24T02:56:24;9.85;;;6.57;;
49223;SDS011;35050;51.316;5.994;2023-04-24T02:58:49;8.05;;;6.68;;
49223;SDS011;35050;51.316;5.994;2023-04-24T03:01:15;8.60;;;6.53;;
49223;SDS011;35050;51.316;5.994;2023-04-24T03:03:41;7.90;;;5.95;;
49223;SDS011;35050;51.316;5.994;2023-04-24T03:06:06;7.97;;;6.22;;
49223;SDS011;35050;51.316;5.994;2023-04-24T03:08:33;9.38;;;7.45;;
49223;SDS011;35050;51.316;5.994;2023-04-24T03:10:59;11.80;;;8.05;;
49223;SDS011;35050;51.316;5.994;2023-04-24T03:13:24;10.75;;;7.05;;
49223;SDS011;35050;51.316;5.994;2023-04-24T03:15:50;10.23;;;7.57;;
49223;SDS011;35050;51.316;5.994;2023-04-24T03:18:16;12.23;;;8.20;;
49223;SDS011;35050;51.316;5.994;2023-04-24T03:20:42;11.55;;;7.75;;
49223;SDS011;35050;51.316;5.994;2023-04-24T03:23:10;8.27;;;6.25;;
49223;SDS011;35050;51.316;5.994;2023-04-24T03:25:36;9.48;;;6.60;;
49223;SDS011;35050;51.316;5.994;2023-04-24T03:28:01;10.15;;;6.28;;
49223;SDS011;35050;51.316;5.994;2023-04-24T03:30:27;10.63;;;6.40;;
49223;SDS011;35050;51.316;5.994;2023-04-24T03:32:52;11.05;;;7.30;;
49223;SDS011;35050;51.316;5.994;2023-04-24T03:35:18;9.75;;;6.10;;
49223;SDS011;35050;51.316;5.994;2023-04-24T03:37:44;11.07;;;7.20;;
49223;SDS011;35050;51.316;5.994;2023-04-24T03:40:10;9.52;;;6.35;;
49223;SDS011;35050;51.316;5.994;2023-04-24T03:42:36;8.40;;;6.65;;
49223;SDS011;35050;51.316;5.994;2023-04-24T03:45:02;9.80;;;6.97;;
49223;SDS011;35050;51.316;5.994;2023-04-24T03:47:28;7.72;;;5.57;;
49223;SDS011;35050;51.316;5.994;2023-04-24T03:49:53;7.55;;;5.28;;
49223;SDS011;35050;51.316;5.994;2023-04-24T03:52:20;7.18;;;5.85;;
49223;SDS011;35050;51.316;5.994;2023-04-24T03:54:46;7.85;;;5.97;;
49223;SDS011;35050;51.316;5.994;2023-04-24T03:57:12;8.20;;;6.40;;
49223;SDS011;35050;51.316;5.994;2023-04-24T03:59:37;8.23;;;5.75;;
49223;SDS011;35050;51.316;5.994;2023-04-24T04:02:03;8.93;;;6.13;;
49223;SDS011;35050;51.316;5.994;2023-04-24T04:04:28;8.07;;;6.40;;
49223;SDS011;35050;51.316;5.994;2023-04-24T04:06:54;9.15;;;6.28;;
49223;SDS011;35050;51.316;5.994;2023-04-24T04:09:19;9.07;;;6.22;;
49223;SDS011;35050;51.316;5.994;2023-04-24T04:11:45;6.22;;;4.90;;
49223;SDS011;35050;51.316;5.994;2023-04-24T04:14:11;12.05;;;5.70;;
49223;SDS011;35050;51.316;5.994;2023-04-24T04:16:37;5.75;;;5.20;;
49223;SDS011;35050;51.316;5.994;2023-04-24T04:19:03;8.45;;;5.03;;
49223;SDS011;35050;51.316;5.994;2023-04-24T04:21:30;5.15;;;4.65;;
49223;SDS011;35050;51.316;5.994;2023-04-24T04:23:57;8.38;;;4.97;;
49223;SDS011;35050;51.316;5.994;2023-04-24T04:26:22;8.02;;;5.30;;
49223;SDS011;35050;51.316;5.994;2023-04-24T04:28:50;6.03;;;4.20;;
49223;SDS011;35050;51.316;5.994;2023-04-24T04:31:16;5.55;;;4.85;;
49223;SDS011;35050;51.316;5.994;2023-04-24T04:33:42;6.57;;;5.05;;
49223;SDS011;35050;51.316;5.994;2023-04-24T04:36:08;7.20;;;5.18;;
49223;SDS011;35050;51.316;5.994;2023-04-24T04:38:34;7.63;;;4.97;;
49223;SDS011;35050;51.316;5.994;2023-04-24T04:41:00;6.18;;;5.18;;
49223;SDS011;35050;51.316;5.994;2023-04-24T04:43:25;7.20;;;6.13;;
49223;SDS011;35050;51.316;5.994;2023-04-24T04:45:52;8.38;;;5.60;;
49223;SDS011;35050;51.316;5.994;2023-04-24T04:48:19;8.70;;;6.30;;
49223;SDS011;35050;51.316;5.994;2023-04-24T04:50:45;7.10;;;5.63;;
49223;SDS011;35050;51.316;5.994;2023-04-24T04:53:10;9.15;;;5.72;;
49223;SDS011;35050;51.316;5.994;2023-04-24T04:55:36;8.55;;;5.63;;
49223;SDS011;35050;51.316;5.994;2023-04-24T04:58:02;6.55;;;5.78;;
49223;SDS011;35050;51.316;5.994;2023-04-24T05:00:28;7.85;;;5.82;;
49223;SDS011;35050;51.316;5.994;2023-04-24T05:02:59;7.22;;;5.38;;
49223;SDS011;35050;51.316;5.994;2023-04-24T05:05:25;6.38;;;5.50;;
49223;SDS011;35050;51.316;5.994;2023-04-24T05:07:50;5.88;;;5.30;;
49223;SDS011;35050;51.316;5.994;2023-04-24T05:10:16;8.55;;;5.95;;
49223;SDS011;35050;51.316;5.994;2023-04-24T05:12:42;8.00;;;5.40;;
49223;SDS011;35050;51.316;5.994;2023-04-24T05:15:08;7.95;;;6.30;;
49223;SDS011;35050;51.316;5.994;2023-04-24T05:17:34;6.78;;;5.53;;
49223;SDS011;35050;51.316;5.994;2023-04-24T05:19:59;6.68;;;5.97;;
49223;SDS011;35050;51.316;5.994;2023-04-24T05:22:25;7.75;;;5.70;;
49223;SDS011;35050;51.316;5.994;2023-04-24T05:24:51;6.05;;;5.00;;
49223;SDS011;35050;51.316;5.994;2023-04-24T05:27:16;5.60;;;5.00;;
49223;SDS011;35050;51.316;5.994;2023-04-24T05:29:42;10.38;;;5.55;;
49223;SDS011;35050;51.316;5.994;2023-04-24T05:32:08;8.23;;;6.00;;
49223;SDS011;35050;51.316;5.994;2023-04-24T05:34:35;6.80;;;5.63;;
49223;SDS011;35050;51.316;5.994;2023-04-24T05:37:01;7.00;;;5.65;;
49223;SDS011;35050;51.316;5.994;2023-04-24T05:39:27;8.00;;;5.13;;
49223;SDS011;35050;51.316;5.994;2023-04-24T05:41:53;5.55;;;4.80;;
49223;SDS011;35050;51.316;5.994;2023-04-24T05:44:20;5.40;;;4.90;;
49223;SDS011;35050;51.316;5.994;2023-04-24T05:46:45;5.32;;;4.82;;
49223;SDS011;35050;51.316;5.994;2023-04-24T05:49:11;6.32;;;5.10;;
49223;SDS011;35050;51.316;5.994;2023-04-24T05:51:36;7.15;;;5.00;;
49223;SDS011;35050;51.316;5.994;2023-04-24T05:54:04;4.35;;;3.95;;
49223;SDS011;35050;51.316;5.994;2023-04-24T05:56:29;5.65;;;4.70;;
49223;SDS011;35050;51.316;5.994;2023-04-24T05:58:56;6.47;;;4.55;;
49223;SDS011;35050;51.316;5.994;2023-04-24T06:01:21;5.95;;;4.13;;
49223;SDS011;35050;51.316;5.994;2023-04-24T06:03:47;6.38;;;3.80;;
49223;SDS011;35050;51.316;5.994;2023-04-24T06:06:13;4.55;;;3.72;;
49223;SDS011;35050;51.316;5.994;2023-04-24T06:08:39;4.20;;;3.30;;
49223;SDS011;35050;51.316;5.994;2023-04-24T06:11:04;6.60;;;4.07;;
49223;SDS011;35050;51.316;5.994;2023-04-24T06:13:30;4.65;;;3.65;;
49223;SDS011;35050;51.316;5.994;2023-04-24T06:15:56;5.70;;;4.20;;
49223;SDS011;35050;51.316;5.994;2023-04-24T06:18:21;3.25;;;2.40;;
49223;SDS011;35050;51.316;5.994;2023-04-24T06:20:47;2.83;;;2.42;;
49223;SDS011;35050;51.316;5.994;2023-04-24T06:23:13;19.45;;;3.00;;
49223;SDS011;35050;51.316;5.994;2023-04-24T06:25:38;3.90;;;1.98;;
49223;SDS011;35050;51.316;5.994;2023-04-24T06:28:04;2.05;;;1.85;;
49223;SDS011;35050;51.316;5.994;2023-04-24T06:30:30;2.78;;;1.90;;
49223;SDS011;35050;51.316;5.994;2023-04-24T06:32:56;4.38;;;2.20;;
49223;SDS011;35050;51.316;5.994;2023-04-24T06:35:22;2.40;;;1.90;;
49223;SDS011;35050;51.316;5.994;2023-04-24T06:37:48;2.63;;;1.92;;
49223;SDS011;35050;51.316;5.994;2023-04-24T06:40:13;2.08;;;1.83;;
49223;SDS011;35050;51.316;5.994;2023-04-24T06:42:39;2.35;;;1.67;;
49223;SDS011;35050;51.316;5.994;2023-04-24T06:45:05;3.55;;;1.45;;
49223;SDS011;35050;51.316;5.994;2023-04-24T06:47:31;1.40;;;1.13;;
49223;SDS011;35050;51.316;5.994;2023-04-24T06:49:57;2.45;;;1.13;;
49223;SDS011;35050;51.316;5.994;2023-04-24T06:52:23;1.45;;;1.10;;
49223;SDS011;35050;51.316;5.994;2023-04-24T06:54:49;1.38;;;1.00;;
49223;SDS011;35050;51.316;5.994;2023-04-24T06:57:14;1.27;;;0.93;;
49223;SDS011;35050;51.316;5.994;2023-04-24T06:59:41;4.63;;;0.93;;
49223;SDS011;35050;51.316;5.994;2023-04-24T07:02:07;1.23;;;0.90;;
49223;SDS011;35050;51.316;5.994;2023-04-24T07:04:33;0.80;;;0.80;;
49223;SDS011;35050;51.316;5.994;2023-04-24T07:06:59;7.47;;;1.20;;
49223;SDS011;35050;51.316;5.994;2023-04-24T07:09:25;2.30;;;1.10;;
49223;SDS011;35050;51.316;5.994;2023-04-24T07:11:51;2.40;;;1.00;;
49223;SDS011;35050;51.316;5.994;2023-04-24T07:14:18;2.67;;;1.70;;
49223;SDS011;35050;51.316;5.994;2023-04-24T07:16:44;1.67;;;1.50;;
49223;SDS011;35050;51.316;5.994;2023-04-24T07:19:10;2.58;;;1.65;;
49223;SDS011;35050;51.316;5.994;2023-04-24T07:21:36;2.75;;;1.83;;
49223;SDS011;35050;51.316;5.994;2023-04-24T07:24:02;4.07;;;2.17;;
49223;SDS011;35050;51.316;5.994;2023-04-24T07:26:28;3.85;;;2.33;;
49223;SDS011;35050;51.316;5.994;2023-04-24T07:28:55;2.78;;;2.10;;
49223;SDS011;35050;51.316;5.994;2023-04-24T07:31:21;2.75;;;2.35;;
49223;SDS011;35050;51.316;5.994;2023-04-24T07:33:47;3.17;;;2.88;;
49223;SDS011;35050;51.316;5.994;2023-04-24T07:36:13;3.28;;;2.72;;
49223;SDS011;35050;51.316;5.994;2023-04-24T07:38:44;3.00;;;2.45;;
49223;SDS011;35050;51.316;5.994;2023-04-24T07:41:11;3.40;;;3.08;;
49223;SDS011;35050;51.316;5.994;2023-04-24T07:43:39;5.45;;;4.07;;
49223;SDS011;35050;51.316;5.994;2023-04-24T07:46:05;5.63;;;4.03;;
49223;SDS011;35050;51.316;5.994;2023-04-24T07:48:32;6.78;;;5.15;;
49223;SDS011;35050;51.316;5.994;2023-04-24T07:50:57;6.70;;;5.57;;
49223;SDS011;35050;51.316;5.994;2023-04-24T07:53:23;7.95;;;6.35;;
49223;SDS011;35050;51.316;5.994;2023-04-24T07:55:49;7.68;;;6.32;;
49223;SDS011;35050;51.316;5.994;2023-04-24T07:58:14;7.70;;;6.65;;
49223;SDS011;35050;51.316;5.994;2023-04-24T08:00:40;8.48;;;6.85;;
49223;SDS011;35050;51.316;5.994;2023-04-24T08:03:06;6.50;;;5.57;;
49223;SDS011;35050;51.316;5.994;2023-04-24T08:05:31;9.43;;;6.22;;
49223;SDS011;35050;51.316;5.994;2023-04-24T08:07:57;6.60;;;5.40;;
49223;SDS011;35050;51.316;5.994;2023-04-24T08:10:24;8.65;;;6.15;;
49223;SDS011;35050;51.316;5.994;2023-04-24T08:12:50;7.03;;;6.32;;
49223;SDS011;35050;51.316;5.994;2023-04-24T08:15:16;8.02;;;5.90;;
49223;SDS011;35050;51.316;5.994;2023-04-24T08:17:42;6.22;;;5.22;;
49223;SDS011;35050;51.316;5.994;2023-04-24T08:20:08;8.18;;;5.35;;
49223;SDS011;35050;51.316;5.994;2023-04-24T08:22:38;5.28;;;4.40;;
49223;SDS011;35050;51.316;5.994;2023-04-24T08:25:05;4.95;;;4.05;;
49223;SDS011;35050;51.316;5.994;2023-04-24T08:27:32;6.32;;;4.63;;
49223;SDS011;35050;51.316;5.994;2023-04-24T08:29:57;10.77;;;4.97;;
49223;SDS011;35050;51.316;5.994;2023-04-24T08:32:26;9.60;;;4.88;;
49223;SDS011;35050;51.316;5.994;2023-04-24T08:34:55;6.10;;;4.25;;
49223;SDS011;35050;51.316;5.994;2023-04-24T08:37:21;6.65;;;4.60;;
49223;SDS011;35050;51.316;5.994;2023-04-24T08:39:48;6.00;;;4.07;;
49223;SDS011;35050;51.316;5.994;2023-04-24T08:42:15;5.70;;;3.45;;
49223;SDS011;35050;51.316;5.994;2023-04-24T08:44:42;8.30;;;3.80;;
49223;SDS011;35050;51.316;5.994;2023-04-24T08:47:09;9.40;;;4.43;;
49223;SDS011;35050;51.316;5.994;2023-04-24T08:49:36;7.07;;;3.65;;
49223;SDS011;35050;51.316;5.994;2023-04-24T08:52:04;10.85;;;4.22;;
49223;SDS011;35050;51.316;5.994;2023-04-24T08:54:31;9.20;;;4.38;;
49223;SDS011;35050;51.316;5.994;2023-04-24T08:56:59;7.57;;;4.22;;
49223;SDS011;35050;51.316;5.994;2023-04-24T08:59:26;6.00;;;3.88;;
49223;SDS011;35050;51.316;5.994;2023-04-24T09:01:52;6.15;;;3.70;;
49223;SDS011;35050;51.316;5.994;2023-04-24T09:04:20;8.00;;;4.10;;
49223;SDS011;35050;51.316;5.994;2023-04-24T09:06:47;8.00;;;4.57;;
49223;SDS011;35050;51.316;5.994;2023-04-24T09:09:14;8.23;;;4.47;;
49223;SDS011;35050;51.316;5.994;2023-04-24T09:11:42;7.68;;;3.90;;
49223;SDS011;35050;51.316;5.994;2023-04-24T09:14:09;10.45;;;4.75;;
49223;SDS011;35050;51.316;5.994;2023-04-24T09:16:35;8.70;;;4.30;;
49223;SDS011;35050;51.316;5.994;2023-04-24T09:19:01;8.77;;;4.45;;
49223;SDS011;35050;51.316;5.994;2023-04-24T09:21:31;9.48;;;4.47;;
49223;SDS011;35050;51.316;5.994;2023-04-24T09:23:59;8.65;;;4.65;;
49223;SDS011;35050;51.316;5.994;2023-04-24T09:26:28;6.88;;;3.55;;
49223;SDS011;35050;51.316;5.994;2023-04-24T09:28:56;6.80;;;3.50;;
49223;SDS011;35050;51.316;5.994;2023-04-24T09:31:22;9.82;;;4.35;;
49223;SDS011;35050;51.316;5.994;2023-04-24T09:34:07;11.85;;;3.97;;
49223;SDS011;35050;51.316;5.994;2023-04-24T09:36:37;11.45;;;4.40;;
49223;SDS011;35050;51.316;5.994;2023-04-24T09:39:05;9.98;;;3.80;;
49223;SDS011;35050;51.316;5.994;2023-04-24T09:41:44;9.05;;;3.97;;
49223;SDS011;35050;51.316;5.994;2023-04-24T09:44:13;12.35;;;3.55;;
49223;SDS011;35050;51.316;5.994;2023-04-24T09:46:41;9.95;;;4.68;;
49223;SDS011;35050;51.316;5.994;2023-04-24T09:49:08;9.68;;;3.50;;
49223;SDS011;35050;51.316;5.994;2023-04-24T09:51:38;10.00;;;3.42;;
49223;SDS011;35050;51.316;5.994;2023-04-24T09:54:05;9.30;;;2.95;;
49223;SDS011;35050;51.316;5.994;2023-04-24T09:56:54;8.73;;;3.15;;
49223;SDS011;35050;51.316;5.994;2023-04-24T09:59:21;10.85;;;2.95;;
49223;SDS011;35050;51.316;5.994;2023-04-24T10:01:47;7.50;;;3.20;;
49223;SDS011;35050;51.316;5.994;2023-04-24T10:04:21;5.63;;;2.50;;
49223;SDS011;35050;51.316;5.994;2023-04-24T10:06:49;7.95;;;2.90;;
49223;SDS011;35050;51.316;5.994;2023-04-24T10:09:16;4.75;;;2.20;;
49223;SDS011;35050;51.316;5.994;2023-04-24T10:11:45;8.80;;;3.08;;
49223;SDS011;35050;51.316;5.994;2023-04-24T10:14:18;9.52;;;2.72;;
49223;SDS011;35050;51.316;5.994;2023-04-24T10:16:45;8.55;;;2.95;;
49223;SDS011;35050;51.316;5.994;2023-04-24T10:19:12;7.13;;;2.72;;
49223;SDS011;35050;51.316;5.994;2023-04-24T10:21:43;10.27;;;3.85;;
49223;SDS011;35050;51.316;5.994;2023-04-24T10:24:16;9.00;;;2.55;;
49223;SDS011;35050;51.316;5.994;2023-04-24T10:26:43;8.55;;;2.33;;
49223;SDS011;35050;51.316;5.994;2023-04-24T10:29:11;7.60;;;2.50;;
49223;SDS011;35050;51.316;5.994;2023-04-24T10:31:38;9.45;;;2.72;;
49223;SDS011;35050;51.316;5.994;2023-04-24T10:34:05;9.10;;;3.13;;
49223;SDS011;35050;51.316;5.994;2023-04-24T10:36:31;6.82;;;2.33;;
49223;SDS011;35050;51.316;5.994;2023-04-24T10:38:59;9.30;;;2.75;;
49223;SDS011;35050;51.316;5.994;2023-04-24T10:41:26;6.68;;;2.50;;
49223;SDS011;35050;51.316;5.994;2023-04-24T10:44:11;8.75;;;3.78;;
49223;SDS011;35050;51.316;5.994;2023-04-24T10:46:39;5.50;;;2.30;;
49223;SDS011;35050;51.316;5.994;2023-04-24T10:49:08;7.35;;;2.50;;
49223;SDS011;35050;51.316;5.994;2023-04-24T10:51:47;6.75;;;2.67;;
49223;SDS011;35050;51.316;5.994;2023-04-24T10:54:27;6.55;;;2.50;;
49223;SDS011;35050;51.316;5.994;2023-04-24T10:59:44;12.13;;;3.38;;
49223;SDS011;35050;51.316;5.994;2023-04-24T11:02:11;8.65;;;3.00;;
49223;SDS011;35050;51.316;5.994;2023-04-24T11:04:40;6.30;;;2.20;;
49223;SDS011;35050;51.316;5.994;2023-04-24T11:07:08;4.82;;;2.00;;
49223;SDS011;35050;51.316;5.994;2023-04-24T11:09:34;8.20;;;2.55;;
49223;SDS011;35050;51.316;5.994;2023-04-24T11:20:06;3.45;;;1.48;;
49223;SDS011;35050;51.316;5.994;2023-04-24T11:22:38;6.53;;;2.22;;
49223;SDS011;35050;51.316;5.994;2023-04-24T11:25:06;5.57;;;1.73;;
49223;SDS011;35050;51.316;5.994;2023-04-24T11:27:40;9.73;;;2.25;;
49223;SDS011;35050;51.316;5.994;2023-04-24T11:30:16;4.38;;;1.90;;
49223;SDS011;35050;51.316;5.994;2023-04-24T11:32:43;5.10;;;1.60;;
49223;SDS011;35050;51.316;5.994;2023-04-24T11:37:44;5.07;;;1.88;;
49223;SDS011;35050;51.316;5.994;2023-04-24T11:40:12;4.22;;;1.35;;
49223;SDS011;35050;51.316;5.994;2023-04-24T11:42:41;7.38;;;2.03;;
49223;SDS011;35050;51.316;5.994;2023-04-24T11:45:09;6.55;;;1.65;;
49223;SDS011;35050;51.316;5.994;2023-04-24T11:47:39;2.38;;;1.35;;
49223;SDS011;35050;51.316;5.994;2023-04-24T11:50:06;4.28;;;1.30;;
49223;SDS011;35050;51.316;5.994;2023-04-24T11:52:36;2.92;;;1.30;;
49223;SDS011;35050;51.316;5.994;2023-04-24T11:55:03;3.70;;;1.02;;
49223;SDS011;35050;51.316;5.994;2023-04-24T11:57:31;3.70;;;1.40;;
49223;SDS011;35050;51.316;5.994;2023-04-24T12:00:01;0.95;;;0.73;;
49223;SDS011;35050;51.316;5.994;2023-04-24T12:02:29;3.05;;;1.20;;
49223;SDS011;35050;51.316;5.994;2023-04-24T12:04:54;4.22;;;1.05;;
49223;SDS011;35050;51.316;5.994;2023-04-24T12:07:21;3.60;;;1.00;;
49223;SDS011;35050;51.316;5.994;2023-04-24T12:09:48;1.70;;;0.85;;
49223;SDS011;35050;51.316;5.994;2023-04-24T12:12:27;1.85;;;0.90;;
49223;SDS011;35050;51.316;5.994;2023-04-24T12:14:56;2.40;;;1.15;;
49223;SDS011;35050;51.316;5.994;2023-04-24T12:17:33;6.93;;;0.85;;
49223;SDS011;35050;51.316;5.994;2023-04-24T12:20:03;1.38;;;0.75;;
49223;SDS011;35050;51.316;5.994;2023-04-24T12:22:47;1.38;;;0.68;;
49223;SDS011;35050;51.316;5.994;2023-04-24T12:25:16;2.05;;;0.75;;
49223;SDS011;35050;51.316;5.994;2023-04-24T12:27:47;2.05;;;0.70;;
49223;SDS011;35050;51.316;5.994;2023-04-24T12:30:18;1.13;;;0.70;;
49223;SDS011;35050;51.316;5.994;2023-04-24T12:32:48;2.08;;;0.75;;
49223;SDS011;35050;51.316;5.994;2023-04-24T12:35:24;2.55;;;0.80;;
49223;SDS011;35050;51.316;5.994;2023-04-24T12:37:52;1.17;;;0.77;;
49223;SDS011;35050;51.316;5.994;2023-04-24T12:40:18;1.40;;;0.60;;
49223;SDS011;35050;51.316;5.994;2023-04-24T12:42:48;2.53;;;0.75;;
49223;SDS011;35050;51.316;5.994;2023-04-24T12:45:15;3.65;;;1.00;;
49223;SDS011;35050;51.316;5.994;2023-04-24T12:47:43;1.90;;;1.08;;
49223;SDS011;35050;51.316;5.994;2023-04-24T12:50:11;2.83;;;1.13;;
49223;SDS011;35050;51.316;5.994;2023-04-24T12:52:37;3.40;;;1.02;;
49223;SDS011;35050;51.316;5.994;2023-04-24T12:55:04;1.42;;;0.73;;
49223;SDS011;35050;51.316;5.994;2023-04-24T12:57:33;6.55;;;1.15;;
49223;SDS011;35050;51.316;5.994;2023-04-24T13:00:00;2.70;;;0.80;;
49223;SDS011;35050;51.316;5.994;2023-04-24T13:02:26;4.13;;;1.00;;
49223;SDS011;35050;51.316;5.994;2023-04-24T13:04:54;4.38;;;0.82;;
49223;SDS011;35050;51.316;5.994;2023-04-24T13:07:20;1.95;;;0.82;;
49223;SDS011;35050;51.316;5.994;2023-04-24T13:09:47;2.88;;;1.17;;
49223;SDS011;35050;51.316;5.994;2023-04-24T13:12:13;1.45;;;0.70;;
49223;SDS011;35050;51.316;5.994;2023-04-24T13:14:39;1.88;;;0.75;;
49223;SDS011;35050;51.316;5.994;2023-04-24T13:17:05;2.22;;;0.70;;
49223;SDS011;35050;51.316;5.994;2023-04-24T13:19:38;1.83;;;0.95;;
49223;SDS011;35050;51.316;5.994;2023-04-24T13:22:06;1.98;;;1.55;;
49223;SDS011;35050;51.316;5.994;2023-04-24T13:24:34;2.80;;;1.15;;
49223;SDS011;35050;51.316;5.994;2023-04-24T13:27:00;2.35;;;1.30;;
49223;SDS011;35050;51.316;5.994;2023-04-24T13:29:26;1.90;;;0.90;;
49223;SDS011;35050;51.316;5.994;2023-04-24T13:31:52;2.42;;;0.70;;
49223;SDS011;35050;51.316;5.994;2023-04-24T13:34:20;1.08;;;0.60;;
49223;SDS011;35050;51.316;5.994;2023-04-24T13:36:46;1.92;;;0.68;;
49223;SDS011;35050;51.316;5.994;2023-04-24T13:39:12;2.38;;;0.77;;
49223;SDS011;35050;51.316;5.994;2023-04-24T13:41:38;3.05;;;0.80;;
49223;SDS011;35050;51.316;5.994;2023-04-24T13:44:04;3.80;;;1.20;;
49223;SDS011;35050;51.316;5.994;2023-04-24T13:46:31;2.20;;;0.85;;
49223;SDS011;35050;51.316;5.994;2023-04-24T13:48:57;1.60;;;0.88;;
49223;SDS011;35050;51.316;5.994;2023-04-24T13:51:23;1.25;;;0.90;;
49223;SDS011;35050;51.316;5.994;2023-04-24T13:53:52;2.45;;;1.10;;
49223;SDS011;35050;51.316;5.994;2023-04-24T13:56:18;2.45;;;0.95;;
49223;SDS011;35050;51.316;5.994;2023-04-24T13:58:43;1.95;;;1.08;;
49223;SDS011;35050;51.316;5.994;2023-04-24T14:01:09;1.40;;;0.77;;
49223;SDS011;35050;51.316;5.994;2023-04-24T14:03:36;2.40;;;0.95;;
49223;SDS011;35050;51.316;5.994;2023-04-24T14:06:02;1.65;;;1.10;;
49223;SDS011;35050;51.316;5.994;2023-04-24T14:08:28;2.03;;;1.02;;
49223;SDS011;35050;51.316;5.994;2023-04-24T14:10:53;3.90;;;1.20;;
49223;SDS011;35050;51.316;5.994;2023-04-24T14:13:19;2.67;;;1.10;;
49223;SDS011;35050;51.316;5.994;2023-04-24T14:15:45;3.15;;;1.13;;
49223;SDS011;35050;51.316;5.994;2023-04-24T14:18:11;3.67;;;1.58;;
49223;SDS011;35050;51.316;5.994;2023-04-24T14:20:37;1.33;;;0.70;;
49223;SDS011;35050;51.316;5.994;2023-04-24T14:23:03;1.55;;;0.80;;
49223;SDS011;35050;51.316;5.994;2023-04-24T14:25:29;3.00;;;1.30;;
49223;SDS011;35050;51.316;5.994;2023-04-24T14:27:55;3.20;;;1.20;;
49223;SDS011;35050;51.316;5.994;2023-04-24T14:30:21;2.58;;;1.40;;
49223;SDS011;35050;51.316;5.994;2023-04-24T14:32:46;2.55;;;1.55;;
49223;SDS011;35050;51.316;5.994;2023-04-24T14:35:13;3.72;;;1.45;;
49223;SDS011;35050;51.316;5.994;2023-04-24T14:37:39;2.10;;;1.17;;
49223;SDS011;35050;51.316;5.994;2023-04-24T14:40:06;1.70;;;0.80;;
49223;SDS011;35050;51.316;5.994;2023-04-24T14:42:33;2.42;;;1.00;;
49223;SDS011;35050;51.316;5.994;2023-04-24T14:44:59;2.70;;;1.15;;
49223;SDS011;35050;51.316;5.994;2023-04-24T14:47:25;2.70;;;0.90;;
49223;SDS011;35050;51.316;5.994;2023-04-24T14:49:50;1.63;;;1.00;;
49223;SDS011;35050;51.316;5.994;2023-04-24T14:52:16;3.72;;;1.02;;
49223;SDS011;35050;51.316;5.994;2023-04-24T14:54:42;2.85;;;0.90;;
49223;SDS011;35050;51.316;5.994;2023-04-24T14:57:08;2.20;;;1.00;;